Fostoria, Ohio
Current Conditions -  °F | °C
As of 10:53 PM on Saturday 20 Dec 2014 (Local Time) from KFDY Reporting Station
Haze Haze  
Wind Chill: 25°   Ceiling: Unl
Heat Index: 25°   Visibility: 4mi
Dew Point: 23°   Wind: 3mph
Humidity: 92%   Direction: 240°WSW
Pressure: 30.27"   Gusts: NA
Location:  41.16°N, 83.41°W
Report Text: KFDY 210353Z AUTO 24003KT 4SM BR CLR M04/M05 A3027 RMK AO2 SLP255 T10391050
Loading
Personal Weather Stations






























Interactive Weather Map New forecast layout! Learn more

10-Day Weather Forecast

Advertisements
Track Severe Weather on mobile